Somerville, Maine
Current Conditions -  °F | °C
As of 6:53 AM on Thursday 23 Oct 2014 (Local Time) from KAUG Reporting Station
Light Rain Light Rain  
Wind Chill: 39°   Ceiling: 700
Heat Index: 46°   Visibility: 7mi
Dew Point: 44°   Wind: 18mph
Humidity: 93%   Direction: 20°NNE
Pressure: 29.91"   Gusts: 31mph
Location:  44.1756°N, 69.5044°W
Report Text: KAUG 231053Z AUTO 02016G27KT 7SM -RA OVC007 08/07 A2991 RMK AO2 PK WND 02028/1038 CIG 005V011 SLP129 P0005 T00780067
Loading
Personal Weather Stations






























Interactive Weather Map
Tropical Storm Tracking
New forecast layout! Learn more

10-Day Weather Forecast

Advertisements
Track Severe Weather on mobile